Time;durP1;ratioP1;P1;durP2;ratioP2;P2;SDS_P1;SDS_P2;PMS_P1;PMS_P2;Temp;Humidity;BMP_temperature;BMP_pressure;BME280_temperature;BME280_humidity;BME280_pressure;Samples;Min_cycle;Max_cycle;Signal;HPM_P1;HPM_P2
2023/01/09 00:01:38;;;;;;;0.40;0.30;;;7.00;99.90;;;;;;5073292;28;20446;-83
2023/01/09 00:04:06;;;;;;;0.30;0.20;;;7.00;99.90;;;;;;5073216;28;20465;-83
2023/01/09 00:06:33;;;;;;;0.40;0.40;;;7.00;99.90;;;;;;5073208;28;20551;-83
2023/01/09 00:09:00;;;;;;;0.40;0.40;;;7.00;99.90;;;;;;5072908;28;20956;-83
2023/01/09 00:11:27;;;;;;;1.40;0.40;;;7.00;99.90;;;;;;5072906;28;20454;-83
2023/01/09 00:13:53;;;;;;;0.30;0.30;;;6.90;99.90;;;;;;5073430;28;20565;-83
2023/01/09 00:16:20;;;;;;;0.30;0.30;;;7.00;99.90;;;;;;5072788;28;20473;-83
2023/01/09 00:18:49;;;;;;;0.50;0.30;;;7.00;99.90;;;;;;5073369;28;20449;-83
2023/01/09 00:21:15;;;;;;;0.40;0.30;;;7.00;99.90;;;;;;5073048;28;20502;-83
2023/01/09 00:23:42;;;;;;;0.40;0.30;;;7.00;99.90;;;;;;5072992;28;20441;-83
2023/01/09 00:26:12;;;;;;;0.30;0.20;;;7.00;99.90;;;;;;5072761;28;20941;-84
2023/01/09 00:28:39;;;;;;;0.40;0.30;;;7.00;99.90;;;;;;5072824;28;20437;-84
2023/01/09 00:31:07;;;;;;;0.30;0.30;;;7.00;99.90;;;;;;5073087;28;20446;-84
2023/01/09 00:33:36;;;;;;;0.30;0.30;;;7.00;99.90;;;;;;5072615;28;20859;-84
2023/01/09 00:36:05;;;;;;;0.30;0.20;;;7.00;99.90;;;;;;5072696;28;20453;-84
2023/01/09 00:38:31;;;;;;;0.30;0.30;;;6.90;99.90;;;;;;5073006;28;20454;-83
2023/01/09 00:40:59;;;;;;;0.30;0.30;;;6.90;99.90;;;;;;5072829;28;20445;-83
2023/01/09 00:43:33;;;;;;;1.17;0.50;;;6.90;99.90;;;;;;5072763;28;20937;-83
2023/01/09 00:46:03;;;;;;;0.30;0.27;;;6.90;99.90;;;;;;5073050;28;20465;-82
2023/01/09 00:48:30;;;;;;;0.40;0.40;;;6.90;99.90;;;;;;5073862;28;20437;-84
2023/01/09 00:50:59;;;;;;;0.30;0.30;;;6.90;99.90;;;;;;5072458;28;20544;-84
2023/01/09 00:53:31;;;;;;;0.33;0.33;;;6.90;99.90;;;;;;5072643;28;20485;-83
2023/01/09 00:56:00;;;;;;;1.00;0.30;;;7.00;99.90;;;;;;5072425;28;20482;-84
2023/01/09 00:58:27;;;;;;;0.30;0.30;;;7.00;99.90;;;;;;5072702;28;20449;-84
2023/01/09 01:00:54;;;;;;;0.83;0.30;;;7.00;99.90;;;;;;5072538;28;20809;-83
2023/01/09 01:03:21;;;;;;;0.40;0.30;;;7.00;99.90;;;;;;5072913;28;20453;-84
2023/01/09 01:08:33;;;;;;;0.40;0.40;;;6.90;99.90;;;;;;5076114;28;20409;-84
2023/01/09 01:11:04;;;;;;;0.40;0.30;;;6.90;99.90;;;;;;5076170;28;20445;-83
2023/01/09 01:13:31;;;;;;;0.30;0.23;;;6.90;99.90;;;;;;5075757;28;20462;-83
2023/01/09 01:15:57;;;;;;;0.30;0.30;;;6.80;99.90;;;;;;5075716;28;20489;-85
2023/01/09 01:18:24;;;;;;;2.00;0.40;;;6.90;99.90;;;;;;5075982;28;20449;-84
2023/01/09 01:20:51;;;;;;;0.30;0.20;;;6.90;99.90;;;;;;5076145;28;20453;-84
2023/01/09 01:23:18;;;;;;;0.80;0.40;;;6.80;99.90;;;;;;5075942;28;20450;-84
2023/01/09 01:25:46;;;;;;;0.30;0.20;;;6.80;99.90;;;;;;5075616;28;20465;-84
2023/01/09 01:28:12;;;;;;;0.30;0.30;;;6.80;99.90;;;;;;5076136;28;20452;-84
2023/01/09 01:30:40;;;;;;;0.30;0.20;;;6.90;99.90;;;;;;5075505;28;20967;-83
2023/01/09 01:33:07;;;;;;;0.40;0.40;;;6.90;99.90;;;;;;5075657;28;20445;-83
2023/01/09 01:35:34;;;;;;;0.30;0.30;;;6.80;99.90;;;;;;5075354;28;20473;-84
2023/01/09 01:38:01;;;;;;;0.30;0.23;;;6.80;99.90;;;;;;5075665;28;20460;-84
2023/01/09 01:40:29;;;;;;;0.30;0.20;;;6.80;99.90;;;;;;5075605;28;20450;-84
2023/01/09 01:42:57;;;;;;;0.30;0.30;;;6.80;99.90;;;;;;5075583;28;20454;-83
2023/01/09 01:45:25;;;;;;;1.27;0.40;;;6.80;99.90;;;;;;5075086;28;21027;-83
2023/01/09 01:47:56;;;;;;;0.30;0.20;;;6.70;99.90;;;;;;5075223;28;20817;-84
2023/01/09 01:50:29;;;;;;;0.30;0.30;;;6.80;99.90;;;;;;5075506;28;20410;-84
2023/01/09 01:53:02;;;;;;;0.40;0.30;;;6.80;99.90;;;;;;5075386;28;20548;-84
2023/01/09 01:55:30;;;;;;;0.30;0.30;;;6.80;99.90;;;;;;5075401;28;20484;-83
2023/01/09 01:58:02;;;;;;;0.30;0.30;;;6.80;99.90;;;;;;5075280;28;20453;-84
2023/01/09 02:00:31;;;;;;;0.40;0.30;;;6.80;99.90;;;;;;5075347;28;20437;-83
2023/01/09 02:03:00;;;;;;;0.30;0.30;;;6.80;99.90;;;;;;5075039;28;20453;-83
2023/01/09 02:05:27;;;;;;;0.40;0.30;;;6.70;99.90;;;;;;5075336;28;20477;-81
2023/01/09 02:07:54;;;;;;;0.30;0.30;;;6.70;99.90;;;;;;5075116;28;20457;-81
2023/01/09 02:10:22;;;;;;;0.30;0.30;;;6.70;99.90;;;;;;5075010;28;20456;-81
2023/01/09 02:12:49;;;;;;;0.30;0.20;;;6.70;99.90;;;;;;5075227;28;20795;-81
2023/01/09 02:15:19;;;;;;;0.37;0.37;;;6.70;99.90;;;;;;5074568;28;20501;-82
2023/01/09 02:18:19;;;;;;;1.53;0.40;;;6.70;99.90;;;;;;5073814;28;20445;-81
2023/01/09 02:20:54;;;;;;;0.30;0.30;;;6.70;99.90;;;;;;5063408;28;20445;-81
2023/01/09 02:23:57;;;;;;;0.30;0.20;;;6.70;99.90;;;;;;5075050;28;20417;-81
2023/01/09 02:26:43;;;;;;;0.30;0.30;;;6.70;99.90;;;;;;5074909;28;20788;-81
2023/01/09 02:29:45;;;;;;;0.30;0.27;;;6.80;99.90;;;;;;5074661;28;20438;-82
2023/01/09 02:32:24;;;;;;;0.43;0.30;;;6.80;99.90;;;;;;5012578;28;20448;-82
2023/01/09 02:35:00;;;;;;;0.57;0.57;;;6.70;99.90;;;;;;5066552;28;20489;-82
2023/01/09 02:37:36;;;;;;;0.30;0.30;;;6.80;99.90;;;;;;5074237;28;20921;-81
2023/01/09 02:40:12;;;;;;;0.30;0.30;;;6.70;99.90;;;;;;5074446;28;20441;-81
2023/01/09 02:42:41;;;;;;;0.30;0.27;;;6.70;99.90;;;;;;5074455;28;20433;-81
2023/01/09 02:45:08;;;;;;;0.30;0.30;;;6.70;99.90;;;;;;5074210;28;20457;-82
2023/01/09 02:47:41;;;;;;;0.30;0.30;;;6.70;99.90;;;;;;5074304;28;20854;-81
2023/01/09 02:50:11;;;;;;;0.30;0.20;;;6.70;99.90;;;;;;5074064;28;20927;-82
2023/01/09 02:53:11;;;;;;;0.30;0.30;;;6.70;99.90;;;;;;5074179;28;20460;-81
2023/01/09 02:55:54;;;;;;;0.30;0.30;;;6.70;99.90;;;;;;5058427;28;21004;-81
2023/01/09 02:58:33;;;;;;;0.40;0.30;;;6.70;99.90;;;;;;5074179;28;20438;-81
2023/01/09 03:01:12;;;;;;;0.30;0.30;;;6.70;99.90;;;;;;5074179;28;20432;-80
2023/01/09 03:03:47;;;;;;;0.50;0.30;;;6.60;99.90;;;;;;5073905;28;20426;-80
2023/01/09 03:06:20;;;;;;;0.30;0.20;;;6.60;99.90;;;;;;5073988;28;20520;-80
2023/01/09 03:08:51;;;;;;;0.30;0.20;;;6.60;99.90;;;;;;5073852;28;20422;-80
2023/01/09 03:11:20;;;;;;;0.30;0.20;;;6.60;99.90;;;;;;5073797;28;20952;-80
2023/01/09 03:13:51;;;;;;;0.30;0.30;;;6.60;99.90;;;;;;5073956;28;20481;-81
2023/01/09 03:16:21;;;;;;;0.30;0.30;;;6.50;99.90;;;;;;5073791;28;20488;-81
2023/01/09 03:18:51;;;;;;;0.30;0.20;;;6.50;99.90;;;;;;5074013;28;20445;-82
2023/01/09 03:21:20;;;;;;;0.30;0.20;;;6.50;99.90;;;;;;5073760;28;20437;-82
2023/01/09 03:23:49;;;;;;;0.30;0.20;;;6.40;99.90;;;;;;5073734;28;20430;-81
2023/01/09 03:26:16;;;;;;;0.30;0.20;;;6.40;99.90;;;;;;5073871;28;20441;-81
2023/01/09 03:28:43;;;;;;;0.30;0.20;;;6.30;99.90;;;;;;5073533;28;20450;-82
2023/01/09 03:31:10;;;;;;;0.30;0.20;;;6.30;99.90;;;;;;5073578;28;20449;-81
2023/01/09 03:33:37;;;;;;;0.30;0.20;;;6.30;99.90;;;;;;5073353;28;20456;-82
2023/01/09 03:36:06;;;;;;;0.30;0.27;;;6.20;99.90;;;;;;5073486;28;20934;-83
2023/01/09 03:38:33;;;;;;;0.30;0.20;;;6.20;99.90;;;;;;5073527;28;20430;-83
2023/01/09 03:41:01;;;;;;;0.30;0.20;;;6.20;99.90;;;;;;5073416;28;20945;-82
2023/01/09 03:43:27;;;;;;;0.30;0.30;;;6.30;99.90;;;;;;5073119;28;20452;-82
2023/01/09 03:45:54;;;;;;;0.30;0.30;;;6.30;99.90;;;;;;5073414;28;20462;-82
2023/01/09 03:48:21;;;;;;;0.30;0.30;;;6.30;99.90;;;;;;5073461;28;20449;-82
2023/01/09 03:50:48;;;;;;;0.40;0.30;;;6.20;99.90;;;;;;5073098;28;20460;-83
2023/01/09 03:53:17;;;;;;;0.30;0.20;;;6.20;99.90;;;;;;5073083;28;20444;-82
2023/01/09 03:55:45;;;;;;;0.90;0.30;;;6.30;99.90;;;;;;5072857;28;20492;-83
2023/01/09 03:58:12;;;;;;;0.37;0.27;;;6.30;99.90;;;;;;5073324;28;20829;-83
2023/01/09 04:00:39;;;;;;;0.30;0.20;;;6.30;99.90;;;;;;5072932;28;20963;-83
2023/01/09 04:03:06;;;;;;;0.30;0.23;;;6.40;99.90;;;;;;5073061;28;20449;-83
2023/01/09 04:05:33;;;;;;;0.30;0.30;;;6.40;99.90;;;;;;5073171;28;20491;-82
2023/01/09 04:07:59;;;;;;;0.30;0.20;;;6.50;99.90;;;;;;5073195;28;20441;-82
2023/01/09 04:10:28;;;;;;;0.30;0.30;;;6.50;99.90;;;;;;5073160;28;20454;-82
2023/01/09 04:12:54;;;;;;;0.30;0.20;;;6.50;99.90;;;;;;5073179;28;20440;-82
2023/01/09 04:15:21;;;;;;;0.30;0.20;;;6.40;99.90;;;;;;5072711;28;20494;-83
2023/01/09 04:17:48;;;;;;;0.30;0.20;;;6.30;99.90;;;;;;5073369;28;20449;-82
2023/01/09 04:20:15;;;;;;;0.30;0.20;;;6.20;99.90;;;;;;5073399;28;20457;-83
2023/01/09 04:22:42;;;;;;;0.30;0.20;;;6.10;99.90;;;;;;5073073;28;20460;-83
2023/01/09 04:25:09;;;;;;;0.30;0.20;;;6.00;99.90;;;;;;5072977;28;20461;-82
2023/01/09 04:27:37;;;;;;;0.30;0.20;;;5.90;99.90;;;;;;5073024;28;20457;-83
2023/01/09 04:30:05;;;;;;;0.30;0.20;;;5.90;99.90;;;;;;5072665;28;21015;-83
2023/01/09 04:32:32;;;;;;;0.30;0.20;;;5.90;99.90;;;;;;5072955;28;20456;-82
2023/01/09 04:34:59;;;;;;;0.30;0.20;;;5.80;99.90;;;;;;5072830;28;20884;-82
2023/01/09 04:37:25;;;;;;;0.30;0.30;;;5.90;99.90;;;;;;5072936;28;20462;-82
2023/01/09 04:39:54;;;;;;;0.30;0.20;;;5.90;99.90;;;;;;5073099;28;20968;-82
2023/01/09 04:42:21;;;;;;;0.30;0.20;;;5.80;99.90;;;;;;5076652;28;20449;-82
2023/01/09 04:44:52;;;;;;;0.30;0.20;;;5.70;99.90;;;;;;5076538;28;20492;-82
2023/01/09 04:47:19;;;;;;;0.30;0.20;;;5.70;99.90;;;;;;5076611;28;20437;-83
2023/01/09 04:49:46;;;;;;;0.30;0.20;;;5.70;99.90;;;;;;5076687;28;20456;-83
2023/01/09 04:52:13;;;;;;;0.30;0.20;;;5.60;99.90;;;;;;5076518;28;20434;-83
2023/01/09 04:54:39;;;;;;;0.30;0.30;;;5.60;99.90;;;;;;5075931;28;20854;-82
2023/01/09 04:57:06;;;;;;;0.30;0.20;;;5.50;99.90;;;;;;5076405;28;20453;-82
2023/01/09 04:59:33;;;;;;;0.30;0.20;;;5.40;99.90;;;;;;5076185;28;20938;-82
2023/01/09 05:02:01;;;;;;;0.30;0.30;;;5.40;99.90;;;;;;5076438;28;20432;-83
2023/01/09 05:04:28;;;;;;;0.30;0.20;;;5.40;99.90;;;;;;5076071;28;21008;-82
2023/01/09 05:06:54;;;;;;;0.30;0.20;;;5.40;99.90;;;;;;5075924;28;20941;-82
2023/01/09 05:09:21;;;;;;;0.30;0.27;;;5.30;99.90;;;;;;5076192;28;20453;-82
2023/01/09 05:11:48;;;;;;;0.30;0.20;;;5.20;99.90;;;;;;5075870;28;20455;-82
2023/01/09 05:14:15;;;;;;;0.30;0.20;;;5.10;99.90;;;;;;5075989;28;20873;-82
2023/01/09 05:16:42;;;;;;;0.30;0.20;;;5.10;99.90;;;;;;5075616;28;20853;-82
2023/01/09 05:19:10;;;;;;;0.30;0.20;;;5.00;99.90;;;;;;5075687;28;20961;-83
2023/01/09 05:21:37;;;;;;;0.30;0.20;;;4.90;99.90;;;;;;5075981;28;20461;-82
2023/01/09 05:24:04;;;;;;;0.30;0.20;;;4.90;99.90;;;;;;5076150;28;20461;-82
2023/01/09 05:26:31;;;;;;;0.30;0.23;;;4.80;99.90;;;;;;5075558;28;20953;-83
2023/01/09 05:28:57;;;;;;;0.30;0.30;;;4.90;99.90;;;;;;5075893;28;20445;-83
2023/01/09 05:31:25;;;;;;;0.30;0.20;;;4.80;99.90;;;;;;5075572;28;20802;-82
2023/01/09 05:33:53;;;;;;;0.30;0.20;;;4.80;99.90;;;;;;5075653;28;20452;-82
2023/01/09 05:36:21;;;;;;;0.30;0.20;;;4.70;99.90;;;;;;5075651;28;20481;-82
2023/01/09 05:38:47;;;;;;;0.30;0.20;;;4.70;99.90;;;;;;5075706;28;20469;-82
2023/01/09 05:41:14;;;;;;;0.30;0.20;;;4.70;99.90;;;;;;5075647;28;20445;-82
2023/01/09 05:43:41;;;;;;;0.30;0.30;;;4.70;99.90;;;;;;5075547;28;20446;-83
2023/01/09 05:46:08;;;;;;;0.30;0.30;;;4.70;99.90;;;;;;5075526;28;20457;-82
2023/01/09 05:48:34;;;;;;;0.30;0.20;;;4.60;99.90;;;;;;5075549;28;20457;-82
2023/01/09 05:51:01;;;;;;;0.30;0.20;;;4.60;99.90;;;;;;5074558;28;20767;-82
2023/01/09 05:53:29;;;;;;;0.30;0.30;;;4.50;99.90;;;;;;5074832;28;20441;-82
2023/01/09 05:55:56;;;;;;;0.30;0.20;;;4.50;99.90;;;;;;5074879;28;21018;-82
2023/01/09 05:58:22;;;;;;;0.30;0.30;;;4.50;99.90;;;;;;5075345;28;20453;-82
2023/01/09 06:00:49;;;;;;;0.30;0.20;;;4.40;99.90;;;;;;5074900;28;20454;-82
2023/01/09 06:03:16;;;;;;;0.30;0.20;;;4.40;99.90;;;;;;5074923;28;20441;-82
2023/01/09 06:05:43;;;;;;;0.30;0.20;;;4.40;99.90;;;;;;5075040;28;21082;-82
2023/01/09 06:08:09;;;;;;;0.30;0.30;;;4.30;99.90;;;;;;5075145;28;20442;-82
2023/01/09 06:10:37;;;;;;;0.30;0.30;;;4.40;99.90;;;;;;5074719;28;20972;-82
2023/01/09 06:13:04;;;;;;;0.30;0.30;;;4.30;99.90;;;;;;5075008;28;20458;-82
2023/01/09 06:15:31;;;;;;;0.30;0.20;;;4.30;99.90;;;;;;5074257;28;20490;-83
2023/01/09 06:17:57;;;;;;;0.30;0.30;;;4.30;99.90;;;;;;5074922;28;20458;-83
2023/01/09 06:20:24;;;;;;;0.30;0.30;;;4.30;99.90;;;;;;5074780;28;20445;-83
2023/01/09 06:22:52;;;;;;;0.30;0.30;;;4.20;99.90;;;;;;5074679;28;20457;-83
2023/01/09 06:25:19;;;;;;;1.33;0.30;;;4.20;99.90;;;;;;5074648;28;20473;-83
2023/01/09 06:27:48;;;;;;;0.30;0.20;;;4.30;99.90;;;;;;5074681;28;20454;-83
2023/01/09 06:30:15;;;;;;;0.30;0.30;;;4.30;99.90;;;;;;5074580;28;20453;-83
2023/01/09 06:32:42;;;;;;;0.30;0.30;;;4.20;99.90;;;;;;5074755;28;20437;-83
2023/01/09 06:35:09;;;;;;;4.30;0.50;;;4.20;99.90;;;;;;5074418;28;20484;-83
2023/01/09 06:37:36;;;;;;;0.30;0.30;;;4.10;99.90;;;;;;5074490;28;20449;-83
2023/01/09 06:40:03;;;;;;;0.30;0.30;;;4.20;99.90;;;;;;5074100;28;20454;-83
2023/01/09 06:42:30;;;;;;;0.30;0.30;;;4.20;99.90;;;;;;5074431;28;20449;-83
2023/01/09 06:44:58;;;;;;;0.30;0.30;;;4.20;99.90;;;;;;5073957;28;20980;-83
2023/01/09 06:47:25;;;;;;;0.30;0.20;;;4.20;99.90;;;;;;5074286;28;20445;-83
2023/01/09 06:49:51;;;;;;;0.30;0.30;;;4.30;99.90;;;;;;5073941;28;20953;-83
2023/01/09 06:52:18;;;;;;;0.30;0.20;;;4.30;99.90;;;;;;5074199;28;20472;-82
2023/01/09 06:54:45;;;;;;;0.30;0.20;;;4.40;99.90;;;;;;5074244;28;20462;-83
2023/01/09 06:57:13;;;;;;;0.30;0.20;;;4.40;99.90;;;;;;5074150;28;20456;-83
2023/01/09 06:59:40;;;;;;;0.30;0.30;;;4.40;99.90;;;;;;5074337;28;20438;-82
2023/01/09 07:02:17;;;;;;;0.30;0.30;;;4.40;99.90;;;;;;5074040;28;20929;-82
2023/01/09 07:04:44;;;;;;;0.30;0.30;;;4.40;99.90;;;;;;5073731;28;20469;-81
2023/01/09 07:07:11;;;;;;;0.30;0.30;;;4.50;99.90;;;;;;5073911;28;20481;-82
2023/01/09 07:09:38;;;;;;;0.30;0.20;;;4.50;99.90;;;;;;5073867;28;20460;-82
2023/01/09 07:12:05;;;;;;;0.30;0.30;;;4.50;99.90;;;;;;5073846;28;20461;-81
2023/01/09 07:14:32;;;;;;;0.30;0.30;;;4.50;99.90;;;;;;5073503;28;20465;-81
2023/01/09 07:16:59;;;;;;;0.30;0.20;;;4.50;99.90;;;;;;5073698;28;20469;-82
2023/01/09 07:19:27;;;;;;;0.30;0.27;;;4.60;99.90;;;;;;5073871;28;20453;-82
2023/01/09 07:21:54;;;;;;;0.60;0.60;;;4.60;99.90;;;;;;5073677;28;20522;-82
2023/01/09 07:24:21;;;;;;;0.30;0.30;;;4.70;99.90;;;;;;5073702;28;20465;-82
2023/01/09 07:26:47;;;;;;;0.40;0.30;;;4.80;99.90;;;;;;5073298;28;20949;-82
2023/01/09 07:29:14;;;;;;;0.30;0.20;;;4.70;99.90;;;;;;5074149;28;20445;-81
2023/01/09 07:31:41;;;;;;;0.30;0.20;;;4.70;99.90;;;;;;5073808;28;20446;-82
2023/01/09 07:34:07;;;;;;;0.30;0.20;;;4.70;99.90;;;;;;5073611;28;20477;-82
2023/01/09 07:36:35;;;;;;;0.30;0.30;;;4.80;99.90;;;;;;5073287;28;20488;-82
2023/01/09 07:39:02;;;;;;;0.40;0.40;;;4.70;99.90;;;;;;5073450;28;20441;-82
2023/01/09 07:41:29;;;;;;;0.30;0.20;;;4.80;99.90;;;;;;5073536;28;20445;-82
2023/01/09 07:43:57;;;;;;;0.30;0.20;;;4.80;99.90;;;;;;5072943;28;20965;-82
2023/01/09 07:46:23;;;;;;;0.30;0.30;;;4.80;99.90;;;;;;5073293;28;20881;-81
2023/01/09 07:48:50;;;;;;;0.30;0.20;;;4.70;99.90;;;;;;5073397;28;20449;-82
2023/01/09 07:51:17;;;;;;;0.30;0.30;;;4.70;99.90;;;;;;5073013;28;20800;-81
2023/01/09 07:53:45;;;;;;;0.30;0.20;;;4.70;99.90;;;;;;5073289;28;20456;-82
2023/01/09 07:56:12;;;;;;;0.30;0.20;;;4.70;99.90;;;;;;5072933;28;20551;-82
2023/01/09 07:58:39;;;;;;;0.30;0.20;;;4.70;99.90;;;;;;5073325;28;20472;-82
2023/01/09 08:01:06;;;;;;;0.30;0.30;;;4.70;99.90;;;;;;5072872;28;20453;-82
2023/01/09 08:03:33;;;;;;;0.30;0.20;;;4.80;99.90;;;;;;5073100;28;20445;-82
2023/01/09 08:06:00;;;;;;;0.30;0.20;;;4.70;99.90;;;;;;5073167;28;20456;-81
2023/01/09 08:08:26;;;;;;;0.30;0.20;;;4.70;99.90;;;;;;5072440;28;20464;-81
2023/01/09 08:10:54;;;;;;;0.30;0.30;;;4.60;99.90;;;;;;5072860;28;20456;-81
2023/01/09 08:13:21;;;;;;;0.60;0.30;;;4.60;99.90;;;;;;5073109;28;20450;-81
2023/01/09 08:15:48;;;;;;;0.30;0.20;;;4.50;99.90;;;;;;5074770;28;20485;-81
2023/01/09 08:18:15;;;;;;;0.30;0.20;;;4.50;99.90;;;;;;5077099;28;20441;-81
2023/01/09 08:20:42;;;;;;;0.30;0.20;;;4.60;99.90;;;;;;5076845;28;20448;-81
2023/01/09 08:23:08;;;;;;;0.30;0.20;;;4.70;99.90;;;;;;5077104;28;20445;-81
2023/01/09 08:25:35;;;;;;;0.30;0.30;;;4.70;99.90;;;;;;5076605;28;20969;-81
2023/01/09 08:28:03;;;;;;;0.30;0.27;;;4.80;99.90;;;;;;5076988;28;20445;-82
2023/01/09 08:30:30;;;;;;;0.30;0.20;;;4.90;99.90;;;;;;5076632;28;20971;-81
2023/01/09 08:32:57;;;;;;;0.30;0.20;;;5.00;99.90;;;;;;5076931;28;20427;-81
2023/01/09 08:35:23;;;;;;;0.30;0.20;;;5.10;99.90;;;;;;5076399;28;21009;-81
2023/01/09 08:37:50;;;;;;;0.30;0.30;;;5.10;99.90;;;;;;5076789;28;20449;-81
2023/01/09 08:40:18;;;;;;;0.30;0.20;;;5.10;99.90;;;;;;5076735;28;20458;-81
2023/01/09 08:48:16;;;;;;;0.30;0.30;;;5.20;99.90;;;;;;5076658;28;20424;-81
2023/01/09 08:50:43;;;;;;;0.30;0.20;;;5.20;99.90;;;;;;5076551;28;20441;-81
2023/01/09 08:53:10;;;;;;;0.30;0.30;;;5.30;99.90;;;;;;5076484;28;20449;-81
2023/01/09 08:55:37;;;;;;;0.70;0.70;;;5.20;99.90;;;;;;5076291;28;20522;-80
2023/01/09 08:58:03;;;;;;;0.30;0.20;;;5.20;99.90;;;;;;5076064;28;20446;-81
2023/01/09 09:00:31;;;;;;;0.30;0.30;;;5.40;99.90;;;;;;5076296;28;20457;-82
2023/01/09 09:03:00;;;;;;;0.30;0.30;;;5.50;99.90;;;;;;5076312;28;20509;-80
2023/01/09 09:05:29;;;;;;;0.30;0.20;;;5.70;99.90;;;;;;5076115;28;20476;-80
2023/01/09 09:07:56;;;;;;;0.30;0.20;;;5.80;99.90;;;;;;5076184;28;20445;-80
2023/01/09 09:10:24;;;;;;;0.30;0.30;;;5.90;99.90;;;;;;5075839;28;20955;-80
2023/01/09 09:12:52;;;;;;;0.30;0.20;;;6.00;99.90;;;;;;5075994;28;20449;-80
2023/01/09 09:15:22;;;;;;;0.30;0.30;;;6.10;99.90;;;;;;5075658;28;20491;-81
2023/01/09 09:17:53;;;;;;;0.30;0.20;;;6.30;99.90;;;;;;5076045;28;20449;-81
2023/01/09 09:20:20;;;;;;;0.30;0.20;;;6.40;99.90;;;;;;5076063;28;20445;-81
2023/01/09 09:22:47;;;;;;;0.30;0.30;;;6.50;99.90;;;;;;5075753;28;20452;-82
2023/01/09 09:25:13;;;;;;;0.40;0.30;;;6.40;99.90;;;;;;5075539;28;20476;-81
2023/01/09 09:27:41;;;;;;;0.30;0.20;;;6.40;99.90;;;;;;5075675;28;20426;-82
2023/01/09 09:30:09;;;;;;;0.30;0.20;;;6.40;99.90;;;;;;5075631;28;20905;-82
2023/01/09 09:32:36;;;;;;;0.30;0.20;;;6.60;99.90;;;;;;5075899;28;20434;-81
2023/01/09 09:35:05;;;;;;;0.30;0.20;;;6.70;99.90;;;;;;5075714;28;20461;-82
2023/01/09 09:37:32;;;;;;;0.30;0.27;;;6.70;99.90;;;;;;5075985;28;20449;-81
2023/01/09 09:39:59;;;;;;;0.30;0.30;;;6.70;99.90;;;;;;5075454;28;20810;-82
2023/01/09 09:45:37;;;;;;;0.30;0.20;;;6.80;99.90;;;;;;5075417;28;20449;-82
2023/01/09 09:48:14;;;;;;;0.30;0.30;;;7.00;99.90;;;;;;5075560;28;20433;-82
2023/01/09 09:51:17;;;;;;;0.30;0.30;;;7.10;99.90;;;;;;5075568;28;20433;-82
2023/01/09 09:53:48;;;;;;;0.40;0.30;;;7.10;99.90;;;;;;5069875;28;20980;-82
2023/01/09 09:56:18;;;;;;;0.30;0.20;;;7.10;99.90;;;;;;5075370;28;20457;-82
2023/01/09 09:58:48;;;;;;;0.30;0.20;;;7.10;99.90;;;;;;5075080;28;20433;-82
2023/01/09 10:01:21;;;;;;;0.30;0.20;;;7.10;99.90;;;;;;5075008;28;20453;-82
2023/01/09 10:03:51;;;;;;;0.30;0.30;;;7.00;99.90;;;;;;5074900;28;20909;-82
2023/01/09 10:06:25;;;;;;;0.30;0.20;;;6.90;99.90;;;;;;5075248;28;20426;-82
2023/01/09 10:08:57;;;;;;;1.73;0.40;;;6.90;99.90;;;;;;5075168;28;20437;-82
2023/01/09 10:11:29;;;;;;;0.30;0.30;;;6.90;99.90;;;;;;5074803;28;20925;-82
2023/01/09 10:14:04;;;;;;;0.30;0.20;;;6.90;99.90;;;;;;5074991;28;20434;-82
2023/01/09 10:16:43;;;;;;;0.30;0.20;;;7.00;99.90;;;;;;5074450;28;20500;-82
2023/01/09 10:19:27;;;;;;;0.30;0.20;;;6.90;99.90;;;;;;5075005;28;20449;-82
2023/01/09 10:22:03;;;;;;;0.30;0.20;;;6.80;99.90;;;;;;5074987;28;20448;-87
2023/01/09 10:24:47;;;;;;;0.33;0.23;;;6.90;99.90;;;;;;5074737;28;20473;-81
2023/01/09 10:27:27;;;;;;;0.30;0.20;;;6.90;99.90;;;;;;5074803;28;20448;-81
2023/01/09 10:30:03;;;;;;;0.30;0.30;;;6.90;99.90;;;;;;5074435;28;20994;-81
2023/01/09 10:32:55;;;;;;;0.30;0.30;;;6.90;99.90;;;;;;5074467;28;20936;-81
2023/01/09 10:35:49;;;;;;;0.40;0.30;;;6.90;99.90;;;;;;5074162;28;20976;-80
2023/01/09 10:38:22;;;;;;;0.30;0.20;;;6.90;99.90;;;;;;5073788;28;20437;-80
2023/01/09 10:40:55;;;;;;;0.50;0.30;;;6.80;99.90;;;;;;5074533;28;20430;-81
2023/01/09 10:43:29;;;;;;;0.30;0.30;;;6.90;99.90;;;;;;5074264;28;20850;-81
2023/01/09 10:46:02;;;;;;;0.30;0.20;;;6.90;99.90;;;;;;5074112;28;20469;-81
2023/01/09 10:48:32;;;;;;;0.30;0.20;;;6.90;99.90;;;;;;5074157;28;20440;-81
2023/01/09 10:50:59;;;;;;;0.30;0.20;;;7.00;99.90;;;;;;5074333;28;20552;-80
2023/01/09 10:53:30;;;;;;;0.30;0.20;;;6.90;99.90;;;;;;5074232;28;20454;-81
2023/01/09 10:56:03;;;;;;;0.30;0.20;;;6.90;99.90;;;;;;5074068;28;20474;-81
2023/01/09 10:58:30;;;;;;;0.30;0.20;;;6.80;99.90;;;;;;5073868;28;20929;-81
2023/01/09 11:01:00;;;;;;;0.30;0.30;;;6.80;99.90;;;;;;5074086;28;20460;-80
2023/01/09 11:03:28;;;;;;;0.30;0.20;;;6.80;99.90;;;;;;5075371;28;20466;-80
2023/01/09 11:05:57;;;;;;;0.30;0.20;;;6.80;99.90;;;;;;5073902;28;20472;-81
2023/01/09 11:08:30;;;;;;;0.30;0.30;;;6.80;99.90;;;;;;5073614;28;20929;-80
2023/01/09 11:10:59;;;;;;;0.40;0.30;;;6.80;99.90;;;;;;5073957;28;20438;-80
2023/01/09 11:13:28;;;;;;;0.30;0.20;;;6.80;99.90;;;;;;5073872;28;20457;-80
2023/01/09 11:16:04;;;;;;;0.30;0.20;;;6.90;99.90;;;;;;5073069;28;20851;-81
2023/01/09 11:18:32;;;;;;;0.30;0.30;;;7.00;99.90;;;;;;5073817;28;20448;-80
2023/01/09 11:21:13;;;;;;;0.30;0.30;;;7.00;99.90;;;;;;5073526;28;20437;-80
2023/01/09 11:23:41;;;;;;;0.30;0.20;;;7.20;99.90;;;;;;5073446;28;21006;-80
2023/01/09 11:26:22;;;;;;;0.30;0.30;;;7.40;99.90;;;;;;5073678;28;20471;-80
2023/01/09 11:29:06;;;;;;;0.30;0.20;;;7.60;99.90;;;;;;5073708;28;20418;-80
2023/01/09 11:31:33;;;;;;;0.30;0.20;;;7.60;99.90;;;;;;5073646;28;20490;-80
2023/01/09 11:34:00;;;;;;;0.30;0.20;;;7.50;99.90;;;;;;5073544;28;20565;-80
2023/01/09 11:36:27;;;;;;;0.30;0.20;;;7.50;99.90;;;;;;5073241;28;20476;-80
2023/01/09 11:38:57;;;;;;;0.30;0.20;;;7.50;99.90;;;;;;5073256;28;20460;-80
2023/01/09 11:41:26;;;;;;;0.30;0.30;;;7.50;99.90;;;;;;5073248;28;20437;-80
2023/01/09 11:43:56;;;;;;;0.30;0.20;;;7.50;99.90;;;;;;5073354;28;20430;-80
2023/01/09 11:46:36;;;;;;;0.30;0.20;;;7.50;99.90;;;;;;5073669;28;20438;-80
2023/01/09 11:49:05;;;;;;;0.30;0.20;;;7.60;99.90;;;;;;5073432;28;20533;-80
2023/01/09 11:51:33;;;;;;;0.30;0.20;;;7.70;99.90;;;;;;5073337;28;20437;-80
2023/01/09 11:54:17;;;;;;;0.30;0.27;;;7.70;99.90;;;;;;5073024;28;20464;-80
2023/01/09 11:56:45;;;;;;;0.30;0.30;;;7.80;99.90;;;;;;5073431;28;20472;-80
2023/01/09 11:59:14;;;;;;;0.30;0.20;;;7.80;99.90;;;;;;5073384;28;20426;-79
2023/01/09 12:02:10;;;;;;;0.30;0.20;;;7.80;99.90;;;;;;5073153;28;20456;-80
2023/01/09 12:04:43;;;;;;;4.10;2.10;;;7.80;99.90;;;;;;5073235;28;20461;-80
2023/01/09 12:07:34;;;;;;;0.30;0.20;;;7.80;99.90;;;;;;5073322;28;20517;-80
2023/01/09 12:10:15;;;;;;;0.77;0.30;;;7.80;99.90;;;;;;5072948;28;20838;-80
2023/01/09 12:12:54;;;;;;;0.30;0.20;;;7.80;99.90;;;;;;5073245;28;20429;-80
2023/01/09 12:15:27;;;;;;;0.40;0.40;;;7.80;99.90;;;;;;5072812;28;20484;-80
2023/01/09 12:18:24;;;;;;;0.30;0.20;;;7.80;99.90;;;;;;5073115;28;20501;-80
2023/01/09 12:21:01;;;;;;;0.30;0.20;;;7.80;99.90;;;;;;5072774;28;20454;-80
2023/01/09 12:23:42;;;;;;;0.30;0.20;;;7.90;99.90;;;;;;5073507;28;20460;-80
2023/01/09 12:26:17;;;;;;;0.30;0.20;;;7.80;99.90;;;;;;5072775;28;20930;-80
2023/01/09 12:29:04;;;;;;;0.30;0.20;;;7.90;99.90;;;;;;5073047;28;20436;-80
2023/01/09 12:31:43;;;;;;;0.33;0.30;;;7.90;99.90;;;;;;5072983;28;20840;-80
2023/01/09 12:34:30;;;;;;;0.30;0.30;;;7.90;99.90;;;;;;5072962;28;20473;-80
2023/01/09 12:37:12;;;;;;;4.77;0.60;;;7.80;99.90;;;;;;5072894;28;20470;-80
2023/01/09 12:39:48;;;;;;;0.30;0.30;;;7.70;99.90;;;;;;5072979;28;20434;-80
2023/01/09 12:42:32;;;;;;;0.30;0.20;;;7.60;99.90;;;;;;5072934;28;20436;-80
2023/01/09 12:45:04;;;;;;;0.30;0.20;;;7.60;99.90;;;;;;5072865;28;20469;-80
2023/01/09 12:47:43;;;;;;;0.30;0.30;;;7.50;99.90;;;;;;5072563;28;20426;-80
2023/01/09 12:50:31;;;;;;;0.30;0.30;;;7.50;99.90;;;;;;5072863;28;20469;-80
2023/01/09 12:53:08;;;;;;;0.30;0.20;;;7.50;99.90;;;;;;5072886;28;20430;-80
2023/01/09 12:55:39;;;;;;;0.30;0.30;;;7.60;99.90;;;;;;5072739;28;20472;-80
2023/01/09 12:58:16;;;;;;;0.30;0.20;;;7.60;99.90;;;;;;5072405;28;20550;-80
2023/01/09 13:00:47;;;;;;;0.30;0.30;;;7.50;99.90;;;;;;5073000;28;20532;-79
2023/01/09 13:03:21;;;;;;;0.30;0.30;;;7.40;99.90;;;;;;5076383;28;20434;-80
2023/01/09 13:05:50;;;;;;;0.30;0.20;;;7.30;99.90;;;;;;5075986;28;20473;-81
2023/01/09 13:08:22;;;;;;;0.30;0.30;;;7.20;99.90;;;;;;5076359;28;20422;-81
2023/01/09 13:10:52;;;;;;;0.30;0.30;;;7.10;99.90;;;;;;5076291;28;20438;-81
2023/01/09 13:13:25;;;;;;;0.30;0.30;;;6.90;99.90;;;;;;5075874;28;20449;-81
2023/01/09 13:15:56;;;;;;;2.63;0.30;;;6.90;99.90;;;;;;5075660;28;20469;-80
2023/01/09 13:18:29;;;;;;;0.30;0.20;;;6.90;99.90;;;;;;5076081;28;20474;-80
2023/01/09 13:20:57;;;;;;;1.77;0.40;;;6.80;99.90;;;;;;5076104;28;20422;-80
2023/01/09 13:23:33;;;;;;;0.30;0.30;;;6.80;99.90;;;;;;5076035;28;20449;-80
2023/01/09 13:26:04;;;;;;;0.30;0.30;;;6.70;99.90;;;;;;5075695;28;20449;-80